createdAt,value
2019-01-12T00:00:04.936Z,1.60
2019-01-12T00:01:05.018Z,1.60
2019-01-12T00:02:05.117Z,1.60
2019-01-12T00:03:05.180Z,1.60
2019-01-12T00:04:04.333Z,1.60
2019-01-12T00:05:04.832Z,1.60
2019-01-12T00:06:04.316Z,1.60
2019-01-12T00:07:04.351Z,1.60
2019-01-12T00:08:04.650Z,1.60
2019-01-12T00:09:04.601Z,1.60
2019-01-12T00:10:04.964Z,1.60
2019-01-12T00:11:04.330Z,1.60
2019-01-12T00:12:04.997Z,1.60
2019-01-12T00:13:05.066Z,1.60
2019-01-12T00:14:04.563Z,1.60
2019-01-12T00:15:05.180Z,1.70
2019-01-12T00:16:04.744Z,1.70
2019-01-12T00:17:05.131Z,1.70
2019-01-12T00:18:04.803Z,1.70
2019-01-12T00:19:04.978Z,1.70
2019-01-12T00:20:04.365Z,1.70
2019-01-12T00:21:04.623Z,1.70
2019-01-12T00:22:04.265Z,1.70
2019-01-12T00:23:04.406Z,1.70
2019-01-12T00:24:04.522Z,1.70
2019-01-12T00:25:04.252Z,1.70
2019-01-12T00:26:04.551Z,1.70
2019-01-12T00:27:04.679Z,1.70
2019-01-12T00:28:05.151Z,1.70
2019-01-12T00:29:09.685Z,1.70
2019-01-12T00:30:05.162Z,1.70
2019-01-12T00:31:04.591Z,1.70
2019-01-12T00:32:05.210Z,1.70
2019-01-12T00:33:04.286Z,1.70
2019-01-12T00:34:04.678Z,1.70
2019-01-12T00:35:04.351Z,1.70
2019-01-12T00:36:04.504Z,1.70
2019-01-12T00:37:04.640Z,1.70
2019-01-12T00:38:04.928Z,1.70
2019-01-12T00:39:04.230Z,1.70
2019-01-12T00:40:04.269Z,1.70
2019-01-12T00:41:04.708Z,1.70
2019-01-12T00:42:05.252Z,1.70
2019-01-12T00:43:04.253Z,1.70
2019-01-12T00:44:04.340Z,1.70
2019-01-12T00:45:04.892Z,1.70
2019-01-12T00:46:05.187Z,1.70
2019-01-12T00:47:05.212Z,1.80
2019-01-12T00:48:04.408Z,1.80
2019-01-12T00:49:04.519Z,1.70
2019-01-12T00:50:05.047Z,1.80
2019-01-12T00:51:04.302Z,1.80
2019-01-12T00:52:04.955Z,1.80
2019-01-12T00:53:05.166Z,1.80
2019-01-12T00:54:04.205Z,1.80
2019-01-12T00:55:04.347Z,1.80
2019-01-12T00:56:04.432Z,1.80
2019-01-12T00:57:04.535Z,1.80
2019-01-12T00:58:04.908Z,1.80
2019-01-12T00:59:05.062Z,1.80
2019-01-12T01:00:04.203Z,1.80
2019-01-12T01:01:04.747Z,1.80
2019-01-12T01:02:04.834Z,1.80
2019-01-12T01:03:04.986Z,1.80
2019-01-12T01:04:05.141Z,1.80
2019-01-12T01:05:04.432Z,1.80
2019-01-12T01:06:04.644Z,1.80
2019-01-12T01:07:04.677Z,1.80
2019-01-12T01:08:04.806Z,1.80
2019-01-12T01:09:04.795Z,1.80
2019-01-12T01:10:04.667Z,1.80
2019-01-12T01:11:04.824Z,1.80
2019-01-12T01:12:04.305Z,1.80
2019-01-12T01:13:04.432Z,1.80
2019-01-12T01:14:04.498Z,1.80
2019-01-12T01:15:04.843Z,1.80
2019-01-12T01:16:04.398Z,1.80
2019-01-12T01:17:04.433Z,1.80
2019-01-12T01:18:04.935Z,1.80
2019-01-12T01:19:05.337Z,1.80
2019-01-12T01:20:05.171Z,1.80
2019-01-12T01:21:05.123Z,1.80
2019-01-12T01:22:04.481Z,1.80
2019-01-12T01:23:04.507Z,1.80
2019-01-12T01:24:04.810Z,1.80
2019-01-12T01:25:04.372Z,1.80
2019-01-12T01:26:04.781Z,1.80
2019-01-12T01:27:04.804Z,1.80
2019-01-12T01:28:04.911Z,1.80
2019-01-12T01:29:09.936Z,1.80
2019-01-12T01:30:04.362Z,1.80
2019-01-12T01:31:04.521Z,1.80
2019-01-12T01:32:04.604Z,1.80
2019-01-12T01:33:04.704Z,1.80
2019-01-12T01:34:04.750Z,1.90
2019-01-12T01:35:04.473Z,1.90
2019-01-12T01:36:04.541Z,1.90
2019-01-12T01:37:04.556Z,1.80
2019-01-12T01:38:05.116Z,1.90
2019-01-12T01:39:05.114Z,1.80
2019-01-12T01:40:04.688Z,1.80
2019-01-12T01:41:04.319Z,1.90
2019-01-12T01:42:04.504Z,1.90
2019-01-12T01:43:05.056Z,1.90
2019-01-12T01:44:04.362Z,1.90
2019-01-12T01:45:04.909Z,1.90
2019-01-12T01:46:04.457Z,1.80
2019-01-12T01:47:04.728Z,1.90
2019-01-12T01:48:05.063Z,1.90
2019-01-12T01:49:10.256Z,1.90
2019-01-12T01:50:04.729Z,1.90
2019-01-12T01:51:04.715Z,1.90
2019-01-12T01:52:04.428Z,1.90
2019-01-12T01:53:04.703Z,1.90
2019-01-12T01:54:04.795Z,1.90
2019-01-12T01:55:04.425Z,1.90
2019-01-12T01:56:04.515Z,1.90
2019-01-12T01:57:04.501Z,1.90
2019-01-12T01:58:04.680Z,1.90
2019-01-12T01:59:04.292Z,1.90
2019-01-12T02:00:04.874Z,1.90
2019-01-12T02:01:04.383Z,1.90
2019-01-12T02:02:04.444Z,1.90
2019-01-12T02:03:05.042Z,1.90
2019-01-12T02:04:05.264Z,1.90
2019-01-12T02:05:04.224Z,1.90
2019-01-12T02:06:04.248Z,1.90
2019-01-12T02:07:04.244Z,1.90
2019-01-12T02:08:04.842Z,1.90
2019-01-12T02:09:05.032Z,1.90
2019-01-12T02:10:05.115Z,1.90
2019-01-12T02:11:05.137Z,1.90
2019-01-12T02:12:05.139Z,1.90
2019-01-12T02:13:04.269Z,1.90
2019-01-12T02:14:04.650Z,1.90
2019-01-12T02:15:04.679Z,1.90
2019-01-12T02:16:04.734Z,1.90
2019-01-12T02:17:05.001Z,1.90
2019-01-12T02:18:04.409Z,1.90
2019-01-12T02:19:04.471Z,1.90
2019-01-12T02:20:04.902Z,1.90
2019-01-12T02:21:05.162Z,1.90
2019-01-12T02:22:04.370Z,1.90
2019-01-12T02:23:04.369Z,1.90
2019-01-12T02:24:04.746Z,1.90
2019-01-12T02:25:05.057Z,1.90
2019-01-12T02:26:05.226Z,1.90
2019-01-12T02:27:04.635Z,1.90
2019-01-12T02:28:04.799Z,1.90
2019-01-12T02:29:09.302Z,1.90
2019-01-12T02:30:04.660Z,1.90
2019-01-12T02:31:05.097Z,1.90
2019-01-12T02:32:04.363Z,1.90
2019-01-12T02:33:04.404Z,1.90
2019-01-12T02:34:04.850Z,1.90
2019-01-12T02:35:05.001Z,1.90
2019-01-12T02:36:05.298Z,1.90
2019-01-12T02:37:04.437Z,1.90
2019-01-12T02:38:04.527Z,1.90
2019-01-12T02:39:04.404Z,1.90
2019-01-12T02:40:04.517Z,1.90
2019-01-12T02:41:04.675Z,1.90
2019-01-12T02:42:04.646Z,1.90
2019-01-12T02:43:04.864Z,1.90
2019-01-12T02:44:04.870Z,1.90
2019-01-12T02:45:05.082Z,1.90
2019-01-12T02:46:05.246Z,1.90
2019-01-12T02:47:04.361Z,1.90
2019-01-12T02:48:04.343Z,1.90
2019-01-12T02:49:04.771Z,1.90
2019-01-12T02:50:05.159Z,1.90
2019-01-12T02:51:04.806Z,1.90
2019-01-12T02:52:04.977Z,1.90
2019-01-12T02:53:04.275Z,1.90
2019-01-12T02:54:04.772Z,1.90
2019-01-12T02:55:10.133Z,1.90
2019-01-12T02:56:04.610Z,1.90
2019-01-12T02:57:04.690Z,1.90
2019-01-12T02:58:04.790Z,1.90
2019-01-12T02:59:04.810Z,1.90
2019-01-12T03:00:04.819Z,1.90
2019-01-12T03:01:04.987Z,1.90
2019-01-12T03:02:04.299Z,1.90
2019-01-12T03:03:04.502Z,1.90
2019-01-12T03:04:04.605Z,1.90
2019-01-12T03:05:04.255Z,1.90
2019-01-12T03:06:04.461Z,1.90
2019-01-12T03:07:04.994Z,1.90
2019-01-12T03:08:04.618Z,1.90
2019-01-12T03:09:04.788Z,1.90
2019-01-12T03:10:04.898Z,1.90
2019-01-12T03:11:04.313Z,1.90
2019-01-12T03:12:04.598Z,1.90
2019-01-12T03:13:04.876Z,1.90
2019-01-12T03:14:05.096Z,1.90
2019-01-12T03:15:05.183Z,1.90
2019-01-12T03:16:05.155Z,1.90
2019-01-12T03:17:04.606Z,2.00
2019-01-12T03:18:04.841Z,1.90
2019-01-12T03:19:04.803Z,1.90
2019-01-12T03:20:05.159Z,1.90
2019-01-12T03:21:04.331Z,1.90
2019-01-12T03:22:04.700Z,2.00
2019-01-12T03:23:04.317Z,2.00
2019-01-12T03:24:04.511Z,2.00
2019-01-12T03:25:04.432Z,2.00
2019-01-12T03:26:04.910Z,2.00
2019-01-12T03:27:04.999Z,2.00
2019-01-12T03:28:04.310Z,2.00
2019-01-12T03:29:09.526Z,2.00
2019-01-12T03:30:05.019Z,2.00
2019-01-12T03:31:04.405Z,2.00
2019-01-12T03:32:04.642Z,2.00
2019-01-12T03:33:05.104Z,2.00
2019-01-12T03:34:04.357Z,2.00
2019-01-12T03:35:04.716Z,2.00
2019-01-12T03:36:04.784Z,2.00
2019-01-12T03:37:05.207Z,2.00
2019-01-12T03:38:04.657Z,1.90
2019-01-12T03:39:04.589Z,2.00
2019-01-12T03:40:04.905Z,2.00
2019-01-12T03:41:05.070Z,2.00
2019-01-12T03:42:04.733Z,2.00
2019-01-12T03:43:04.525Z,1.90
2019-01-12T03:44:04.626Z,2.00
2019-01-12T03:45:04.178Z,1.90
2019-01-12T03:46:04.391Z,1.90
2019-01-12T03:47:04.959Z,1.90
2019-01-12T03:48:04.560Z,1.90
2019-01-12T03:49:04.659Z,1.90
2019-01-12T03:50:04.926Z,1.90
2019-01-12T03:51:04.411Z,1.90
2019-01-12T03:52:04.561Z,1.90
2019-01-12T03:53:04.598Z,1.90
2019-01-12T03:54:04.656Z,1.90
2019-01-12T03:55:04.631Z,1.90
2019-01-12T03:56:04.614Z,1.90
2019-01-12T03:57:04.945Z,1.90
2019-01-12T03:58:04.322Z,1.90
2019-01-12T03:59:04.496Z,1.90
2019-01-12T04:00:04.617Z,1.90
2019-01-12T04:01:04.721Z,1.90
2019-01-12T04:02:04.472Z,1.90
2019-01-12T04:03:09.886Z,1.90
2019-01-12T04:04:04.255Z,1.90
2019-01-12T04:05:04.408Z,1.90
2019-01-12T04:06:04.951Z,1.90
2019-01-12T04:07:05.093Z,1.90
2019-01-12T04:08:04.304Z,1.90
2019-01-12T04:09:04.472Z,1.90
2019-01-12T04:10:04.842Z,1.90
2019-01-12T04:11:05.221Z,1.90
2019-01-12T04:12:04.166Z,1.90
2019-01-12T04:13:04.580Z,1.90
2019-01-12T04:14:04.566Z,1.90
2019-01-12T04:15:04.969Z,1.90
2019-01-12T04:16:04.873Z,1.90
2019-01-12T04:17:04.973Z,1.90
2019-01-12T04:18:05.051Z,1.90
2019-01-12T04:19:05.232Z,1.90
2019-01-12T04:20:04.268Z,1.90
2019-01-12T04:21:04.955Z,1.90
2019-01-12T04:22:04.841Z,1.90
2019-01-12T04:23:05.120Z,1.90
2019-01-12T04:24:04.519Z,1.90
2019-01-12T04:25:04.950Z,1.90
2019-01-12T04:26:04.870Z,1.90
2019-01-12T04:27:05.176Z,1.90
2019-01-12T04:28:04.233Z,1.90
2019-01-12T04:29:09.447Z,1.90
2019-01-12T04:30:04.858Z,1.90
2019-01-12T04:31:05.044Z,1.90
2019-01-12T04:32:04.990Z,1.90
2019-01-12T04:33:04.263Z,1.90
2019-01-12T04:34:04.319Z,1.90
2019-01-12T04:35:04.406Z,1.90
2019-01-12T04:36:04.479Z,1.90
2019-01-12T04:37:05.155Z,1.90
2019-01-12T04:38:04.619Z,1.90
2019-01-12T04:39:04.984Z,1.90
2019-01-12T04:40:04.246Z,1.90
2019-01-12T04:41:04.217Z,1.90
2019-01-12T04:42:04.265Z,1.90
2019-01-12T04:43:04.812Z,1.90
2019-01-12T04:44:04.549Z,1.90
2019-01-12T04:45:04.715Z,1.90
2019-01-12T04:46:04.479Z,1.90
2019-01-12T04:47:04.955Z,1.90
2019-01-12T04:48:04.293Z,1.90
2019-01-12T04:49:09.714Z,1.90
2019-01-12T04:50:05.308Z,1.90
2019-01-12T04:51:04.636Z,1.90
2019-01-12T04:52:04.522Z,1.90
2019-01-12T04:53:04.447Z,1.90
2019-01-12T04:54:04.495Z,1.90
2019-01-12T04:55:05.082Z,1.90
2019-01-12T04:56:04.643Z,1.90
2019-01-12T04:57:04.792Z,1.90
2019-01-12T04:58:04.850Z,1.90
2019-01-12T04:59:04.972Z,1.90
2019-01-12T05:00:04.578Z,1.90
2019-01-12T05:01:05.009Z,1.90
2019-01-12T05:02:04.186Z,1.90
2019-01-12T05:03:04.350Z,1.90
2019-01-12T05:04:04.634Z,1.90
2019-01-12T05:05:04.973Z,1.90
2019-01-12T05:06:05.147Z,1.90
2019-01-12T05:07:04.412Z,1.90
2019-01-12T05:08:04.338Z,1.90
2019-01-12T05:09:04.721Z,1.90
2019-01-12T05:10:04.742Z,1.90
2019-01-12T05:11:04.234Z,1.90
2019-01-12T05:12:04.806Z,1.90
2019-01-12T05:13:04.865Z,1.90
2019-01-12T05:14:04.860Z,1.90
2019-01-12T05:15:04.492Z,1.90
2019-01-12T05:16:04.901Z,1.90
2019-01-12T05:17:05.104Z,1.90
2019-01-12T05:18:05.173Z,1.90
2019-01-12T05:19:04.703Z,2.00
2019-01-12T05:20:05.059Z,2.00
2019-01-12T05:21:04.537Z,2.00
2019-01-12T05:22:04.570Z,2.00
2019-01-12T05:23:04.923Z,2.00
2019-01-12T05:24:05.007Z,2.00
2019-01-12T05:25:05.669Z,2.00
2019-01-12T05:26:04.781Z,2.00
2019-01-12T05:27:04.927Z,2.00
2019-01-12T05:28:04.353Z,2.00
2019-01-12T05:29:09.707Z,2.00
2019-01-12T05:30:04.270Z,2.00
2019-01-12T05:31:04.322Z,2.00
2019-01-12T05:32:04.494Z,2.00
2019-01-12T05:33:04.860Z,2.00
2019-01-12T05:34:04.893Z,2.00
2019-01-12T05:35:05.115Z,2.00
2019-01-12T05:36:04.554Z,2.00
2019-01-12T05:37:04.613Z,2.00
2019-01-12T05:38:04.825Z,2.00
2019-01-12T05:39:05.097Z,2.00
2019-01-12T05:40:04.741Z,2.00
2019-01-12T05:41:04.754Z,2.00
2019-01-12T05:42:04.942Z,2.00
2019-01-12T05:43:04.983Z,1.90
2019-01-12T05:44:05.047Z,1.90
2019-01-12T05:45:04.326Z,1.90
2019-01-12T05:46:04.692Z,1.90
2019-01-12T05:47:05.106Z,1.90
2019-01-12T05:48:04.541Z,1.90
2019-01-12T05:49:04.586Z,2.00
2019-01-12T05:50:04.703Z,2.00
2019-01-12T05:51:04.851Z,2.00
2019-01-12T05:52:05.112Z,2.00
2019-01-12T05:53:05.129Z,2.00
2019-01-12T05:54:04.368Z,2.00
2019-01-12T05:55:04.659Z,2.00
2019-01-12T05:56:04.556Z,2.00
2019-01-12T05:57:04.691Z,2.00
2019-01-12T05:58:04.719Z,2.00
2019-01-12T05:59:05.190Z,2.00
2019-01-12T06:00:04.778Z,2.00
2019-01-12T06:01:05.061Z,2.00
2019-01-12T06:02:04.529Z,2.10
2019-01-12T06:03:04.645Z,2.00
2019-01-12T06:04:05.024Z,2.10
2019-01-12T06:05:05.102Z,2.10
2019-01-12T06:06:04.679Z,2.10
2019-01-12T06:07:04.941Z,2.10
2019-01-12T06:08:04.666Z,2.10
2019-01-12T06:09:04.705Z,2.10
2019-01-12T06:10:04.873Z,2.10
2019-01-12T06:11:04.340Z,2.10
2019-01-12T06:12:04.360Z,2.10
2019-01-12T06:13:04.615Z,2.10
2019-01-12T06:14:05.139Z,2.10
2019-01-12T06:15:04.700Z,2.10
2019-01-12T06:16:04.684Z,2.10
2019-01-12T06:17:04.339Z,2.10
2019-01-12T06:18:04.757Z,2.10
2019-01-12T06:19:05.217Z,2.10
2019-01-12T06:20:04.730Z,2.10
2019-01-12T06:21:04.725Z,2.10
2019-01-12T06:22:04.769Z,2.10
2019-01-12T06:23:04.847Z,2.10
2019-01-12T06:24:05.208Z,2.10
2019-01-12T06:25:05.149Z,2.10
2019-01-12T06:26:04.434Z,2.10
2019-01-12T06:27:04.955Z,2.10
2019-01-12T06:28:05.296Z,2.10
2019-01-12T06:29:09.700Z,2.10
2019-01-12T06:30:05.177Z,2.10
2019-01-12T06:31:04.315Z,2.10
2019-01-12T06:32:04.671Z,2.10
2019-01-12T06:33:05.054Z,2.20
2019-01-12T06:34:05.144Z,2.10
2019-01-12T06:35:04.330Z,2.10
2019-01-12T06:36:04.622Z,2.10
2019-01-12T06:37:05.013Z,2.20
2019-01-12T06:38:04.526Z,2.10
2019-01-12T06:39:04.455Z,2.20
2019-01-12T06:40:05.066Z,2.20
2019-01-12T06:41:05.028Z,2.10
2019-01-12T06:42:05.237Z,2.10
2019-01-12T06:43:05.098Z,2.10
2019-01-12T06:44:05.140Z,2.20
2019-01-12T06:45:04.702Z,2.10
2019-01-12T06:46:04.822Z,2.10
2019-01-12T06:47:04.306Z,2.10
2019-01-12T06:48:04.355Z,2.10
2019-01-12T06:49:04.343Z,2.10
2019-01-12T06:50:04.603Z,2.10
2019-01-12T06:51:04.916Z,2.10
2019-01-12T06:52:05.217Z,2.10
2019-01-12T06:53:04.208Z,2.10
2019-01-12T06:54:09.462Z,2.10
2019-01-12T06:55:04.886Z,2.10
2019-01-12T06:56:10.776Z,2.10
2019-01-12T06:57:04.669Z,2.10
2019-01-12T06:58:04.780Z,2.10
2019-01-12T06:59:04.896Z,2.10
2019-01-12T07:00:05.061Z,2.10
2019-01-12T07:01:05.082Z,2.10
2019-01-12T07:02:04.980Z,2.10
2019-01-12T07:03:04.385Z,2.10
2019-01-12T07:04:04.927Z,2.10
2019-01-12T07:05:05.027Z,2.10
2019-01-12T07:06:05.048Z,2.10
2019-01-12T07:07:04.606Z,2.10
2019-01-12T07:08:04.621Z,2.10
2019-01-12T07:09:04.199Z,2.10
2019-01-12T07:10:04.490Z,2.10
2019-01-12T07:11:04.710Z,2.10
2019-01-12T07:12:04.700Z,2.10
2019-01-12T07:13:04.885Z,2.00
2019-01-12T07:14:05.025Z,2.10
2019-01-12T07:15:05.177Z,2.10
2019-01-12T07:16:04.248Z,2.10
2019-01-12T07:17:04.538Z,2.10
2019-01-12T07:18:08.815Z,2.10
2019-01-12T07:19:04.700Z,2.10
2019-01-12T07:20:04.814Z,2.10
2019-01-12T07:21:04.711Z,2.00
2019-01-12T07:22:04.308Z,2.10
2019-01-12T07:23:04.878Z,2.10
2019-01-12T07:24:04.996Z,2.00
2019-01-12T07:25:04.987Z,2.10
2019-01-12T07:26:04.992Z,2.10
2019-01-12T07:27:05.050Z,2.10
2019-01-12T07:28:04.718Z,2.10
2019-01-12T07:29:10.116Z,2.00
2019-01-12T07:30:04.644Z,2.10
2019-01-12T07:31:04.779Z,2.10
2019-01-12T07:32:05.224Z,2.10
2019-01-12T07:33:04.359Z,2.10
2019-01-12T07:34:04.681Z,2.10
2019-01-12T07:35:04.982Z,2.10
2019-01-12T07:36:04.438Z,2.10
2019-01-12T07:37:04.542Z,2.10
2019-01-12T07:38:04.636Z,2.10
2019-01-12T07:39:04.982Z,2.10
2019-01-12T07:40:04.967Z,2.10
2019-01-12T07:41:05.248Z,2.10
2019-01-12T07:42:04.433Z,2.10
2019-01-12T07:43:04.853Z,2.10
2019-01-12T07:44:04.487Z,2.10
2019-01-12T07:45:04.828Z,2.10
2019-01-12T07:46:04.931Z,2.10
2019-01-12T07:47:04.949Z,2.10
2019-01-12T07:48:04.560Z,2.10
2019-01-12T07:49:04.957Z,2.10
2019-01-12T07:50:04.604Z,2.10
2019-01-12T07:51:04.383Z,2.10
2019-01-12T07:52:04.462Z,2.10
2019-01-12T07:53:04.858Z,2.10
2019-01-12T07:54:04.979Z,2.10
2019-01-12T07:55:04.989Z,2.10
2019-01-12T07:56:05.198Z,2.10
2019-01-12T07:57:04.681Z,2.10
2019-01-12T07:58:05.053Z,2.10
2019-01-12T07:59:04.467Z,2.10
2019-01-12T08:00:04.791Z,2.10
2019-01-12T08:01:04.330Z,2.10
2019-01-12T08:02:09.456Z,2.10
2019-01-12T08:03:04.555Z,2.10
2019-01-12T08:04:05.143Z,2.10
2019-01-12T08:05:04.232Z,2.10
2019-01-12T08:06:04.359Z,2.10
2019-01-12T08:07:04.978Z,2.10
2019-01-12T08:08:05.038Z,2.10
2019-01-12T08:09:05.070Z,2.10
2019-01-12T08:10:04.228Z,2.10
2019-01-12T08:11:04.424Z,2.20
2019-01-12T08:12:04.798Z,2.20
2019-01-12T08:13:04.888Z,2.20
2019-01-12T08:14:04.936Z,2.20
2019-01-12T08:15:05.027Z,2.20
2019-01-12T08:16:05.049Z,2.20
2019-01-12T08:17:05.117Z,2.20
2019-01-12T08:18:04.320Z,2.20
2019-01-12T08:19:04.634Z,2.30
2019-01-12T08:20:04.781Z,2.30
2019-01-12T08:21:04.682Z,2.30
2019-01-12T08:22:04.731Z,2.30
2019-01-12T08:23:05.179Z,2.30
2019-01-12T08:24:04.528Z,2.30
2019-01-12T08:25:05.019Z,2.30
2019-01-12T08:26:04.890Z,2.40
2019-01-12T08:27:05.238Z,2.40
2019-01-12T08:28:04.648Z,2.40
2019-01-12T08:29:09.786Z,2.40
2019-01-12T08:30:04.203Z,2.40
2019-01-12T08:31:04.751Z,2.40
2019-01-12T08:32:05.195Z,2.40
2019-01-12T08:33:04.744Z,2.50
2019-01-12T08:34:05.222Z,2.50
2019-01-12T08:35:04.285Z,2.50
2019-01-12T08:36:04.421Z,2.50
2019-01-12T08:37:04.596Z,2.50
2019-01-12T08:38:04.719Z,2.60
2019-01-12T08:39:04.993Z,2.60
2019-01-12T08:40:04.474Z,2.60
2019-01-12T08:41:05.124Z,2.60
2019-01-12T08:42:04.616Z,2.60
2019-01-12T08:43:04.737Z,2.70
2019-01-12T08:44:04.874Z,2.70
2019-01-12T08:45:05.028Z,2.70
2019-01-12T08:46:04.279Z,2.70
2019-01-12T08:47:04.416Z,2.70
2019-01-12T08:48:04.404Z,2.70
2019-01-12T08:49:10.128Z,2.80
2019-01-12T08:50:04.636Z,2.80
2019-01-12T08:51:04.292Z,2.80
2019-01-12T08:52:04.665Z,2.80
2019-01-12T08:53:04.727Z,2.80
2019-01-12T08:54:04.864Z,2.90
2019-01-12T08:55:04.298Z,2.90
2019-01-12T08:56:04.767Z,2.90
2019-01-12T08:57:04.870Z,2.90
2019-01-12T08:58:04.745Z,2.90
2019-01-12T08:59:04.684Z,3.00
2019-01-12T09:00:04.301Z,3.00
2019-01-12T09:01:04.725Z,3.00
2019-01-12T09:02:04.615Z,3.00
2019-01-12T09:03:04.484Z,3.00
2019-01-12T09:04:04.767Z,3.00
2019-01-12T09:05:05.079Z,3.10
2019-01-12T09:06:04.581Z,3.10
2019-01-12T09:07:04.948Z,3.10
2019-01-12T09:08:04.954Z,3.10
2019-01-12T09:09:05.686Z,3.10
2019-01-12T09:10:05.418Z,3.10
2019-01-12T09:11:04.409Z,3.10
2019-01-12T09:12:04.944Z,3.20
2019-01-12T09:13:04.234Z,3.20
2019-01-12T09:14:04.783Z,3.20
2019-01-12T09:15:04.556Z,3.20
2019-01-12T09:16:04.508Z,3.20
2019-01-12T09:17:04.693Z,3.20
2019-01-12T09:18:05.147Z,3.20
2019-01-12T09:19:05.247Z,3.20
2019-01-12T09:20:04.642Z,3.20
2019-01-12T09:21:04.789Z,3.20
2019-01-12T09:22:05.081Z,3.20
2019-01-12T09:23:04.502Z,3.30
2019-01-12T09:24:04.576Z,3.30
2019-01-12T09:25:04.792Z,3.30
2019-01-12T09:26:05.082Z,3.30
2019-01-12T09:27:05.146Z,3.30
2019-01-12T09:28:04.531Z,3.30
2019-01-12T09:29:04.722Z,3.30
2019-01-12T09:30:04.756Z,3.30
2019-01-12T09:31:04.772Z,3.40
2019-01-12T09:32:05.048Z,3.40
2019-01-12T09:33:04.601Z,3.40
2019-01-12T09:34:04.894Z,3.40
2019-01-12T09:35:05.042Z,3.40
2019-01-12T09:36:04.224Z,3.40
2019-01-12T09:37:04.397Z,3.40
2019-01-12T09:38:04.519Z,3.40
2019-01-12T09:39:04.554Z,3.40
2019-01-12T09:40:05.170Z,3.40
2019-01-12T09:41:05.154Z,3.50
2019-01-12T09:42:04.381Z,3.50
2019-01-12T09:43:04.265Z,3.50
2019-01-12T09:44:04.782Z,3.50
2019-01-12T09:45:05.084Z,3.50
2019-01-12T09:46:04.396Z,3.50
2019-01-12T09:47:04.685Z,3.50
2019-01-12T09:48:04.674Z,3.60
2019-01-12T09:49:04.387Z,3.60
2019-01-12T09:50:04.881Z,3.60
2019-01-12T09:51:05.171Z,3.60
2019-01-12T09:52:04.304Z,3.60
2019-01-12T09:53:04.323Z,3.60
2019-01-12T09:54:04.897Z,3.60
2019-01-12T09:55:04.973Z,3.70
2019-01-12T09:56:05.051Z,3.70
2019-01-12T09:57:05.249Z,3.70
2019-01-12T09:58:04.206Z,3.70
2019-01-12T09:59:04.896Z,3.70
2019-01-12T10:00:04.406Z,3.80
2019-01-12T10:01:04.720Z,3.80
2019-01-12T10:02:04.995Z,3.80
2019-01-12T10:03:04.625Z,3.80
2019-01-12T10:04:04.744Z,3.80
2019-01-12T10:05:04.884Z,3.80
2019-01-12T10:06:04.878Z,3.80
2019-01-12T10:07:04.221Z,3.80
2019-01-12T10:08:04.861Z,3.80
2019-01-12T10:09:04.387Z,3.90
2019-01-12T10:10:04.524Z,3.90
2019-01-12T10:11:04.524Z,3.90
2019-01-12T10:12:04.985Z,3.90
2019-01-12T10:13:05.056Z,3.90
2019-01-12T10:14:05.195Z,3.90
2019-01-12T10:15:04.638Z,4.00
2019-01-12T10:16:04.852Z,4.00
2019-01-12T10:17:04.500Z,4.00
2019-01-12T10:18:04.776Z,4.00
2019-01-12T10:19:04.317Z,4.00
2019-01-12T10:20:04.439Z,4.00
2019-01-12T10:21:05.085Z,4.10
2019-01-12T10:22:04.382Z,4.00
2019-01-12T10:23:04.925Z,4.10
2019-01-12T10:24:05.093Z,4.10
2019-01-12T10:25:04.626Z,4.10
2019-01-12T10:26:04.869Z,4.10
2019-01-12T10:27:04.823Z,4.10
2019-01-12T10:28:05.085Z,4.10
2019-01-12T10:29:09.233Z,4.10
2019-01-12T10:30:04.782Z,4.10
2019-01-12T10:31:04.306Z,4.10
2019-01-12T10:32:04.286Z,4.10
2019-01-12T10:33:04.499Z,4.20
2019-01-12T10:34:04.640Z,4.20
2019-01-12T10:35:04.829Z,4.20
2019-01-12T10:36:04.289Z,4.20
2019-01-12T10:37:04.472Z,4.20
2019-01-12T10:38:04.698Z,4.20
2019-01-12T10:39:05.170Z,4.20
2019-01-12T10:40:04.204Z,4.10
2019-01-12T10:41:04.424Z,4.10
2019-01-12T10:42:04.825Z,4.10
2019-01-12T10:43:05.167Z,4.10
2019-01-12T10:44:05.177Z,4.10
2019-01-12T10:45:04.689Z,4.10
2019-01-12T10:46:04.593Z,4.10
2019-01-12T10:47:04.725Z,4.10
2019-01-12T10:48:04.857Z,4.10
2019-01-12T10:49:10.180Z,4.10
2019-01-12T10:50:04.658Z,4.10
2019-01-12T10:51:04.744Z,4.10
2019-01-12T10:52:04.998Z,4.10
2019-01-12T10:53:04.557Z,4.10
2019-01-12T10:54:04.849Z,4.10
2019-01-12T10:55:04.952Z,4.10
2019-01-12T10:56:04.395Z,4.10
2019-01-12T10:57:05.530Z,4.10
2019-01-12T10:58:04.671Z,4.10
2019-01-12T10:59:04.826Z,4.10
2019-01-12T11:00:04.301Z,4.10
2019-01-12T11:01:04.730Z,4.10
2019-01-12T11:02:05.126Z,4.10
2019-01-12T11:03:05.105Z,4.10
2019-01-12T11:04:04.387Z,4.10
2019-01-12T11:05:04.459Z,4.10
2019-01-12T11:06:04.973Z,4.10
2019-01-12T11:07:04.533Z,4.10
2019-01-12T11:08:04.493Z,4.10
2019-01-12T11:09:04.889Z,4.10
2019-01-12T11:10:05.164Z,4.10
2019-01-12T11:11:04.864Z,4.10
2019-01-12T11:12:04.427Z,4.10
2019-01-12T11:13:04.735Z,4.10
2019-01-12T11:14:04.632Z,4.10
2019-01-12T11:15:04.817Z,4.10
2019-01-12T11:16:04.964Z,4.10
2019-01-12T11:17:04.413Z,4.00
2019-01-12T11:18:04.519Z,4.00
2019-01-12T11:19:05.158Z,4.00
2019-01-12T11:20:05.232Z,4.00
2019-01-12T11:21:04.481Z,4.00
2019-01-12T11:22:05.061Z,4.00
2019-01-12T11:23:04.376Z,4.00
2019-01-12T11:24:04.897Z,4.00
2019-01-12T11:25:05.085Z,4.00
2019-01-12T11:26:05.133Z,4.00
2019-01-12T11:27:04.432Z,4.00
2019-01-12T11:28:04.388Z,4.00
2019-01-12T11:29:04.606Z,4.00
2019-01-12T11:30:04.825Z,4.00
2019-01-12T11:31:04.912Z,4.00
2019-01-12T11:32:05.116Z,4.00
2019-01-12T11:33:05.113Z,4.00
2019-01-12T11:34:05.137Z,4.00
2019-01-12T11:35:04.339Z,4.10
2019-01-12T11:36:05.040Z,4.10
2019-01-12T11:37:05.067Z,4.10
2019-01-12T11:38:05.151Z,4.10
2019-01-12T11:39:04.370Z,4.10
2019-01-12T11:40:04.721Z,4.10
2019-01-12T11:41:04.873Z,4.00
2019-01-12T11:42:05.086Z,4.10
2019-01-12T11:43:04.791Z,4.00
2019-01-12T11:44:10.169Z,4.00
2019-01-12T11:45:04.696Z,4.00
2019-01-12T11:46:04.782Z,4.00
2019-01-12T11:47:04.961Z,4.00
2019-01-12T11:48:04.926Z,4.00
2019-01-12T11:49:04.510Z,4.00
2019-01-12T11:50:04.704Z,4.00
2019-01-12T11:51:04.811Z,4.00
2019-01-12T11:52:04.459Z,4.00
2019-01-12T11:53:04.705Z,4.00
2019-01-12T11:54:05.107Z,4.00
2019-01-12T11:55:04.724Z,4.00
2019-01-12T11:56:04.431Z,3.90
2019-01-12T11:57:04.804Z,4.00
2019-01-12T11:58:05.220Z,3.90
2019-01-12T11:59:04.726Z,3.90
2019-01-12T12:00:04.966Z,3.90
2019-01-12T12:01:05.069Z,3.90
2019-01-12T12:02:05.135Z,3.90
2019-01-12T12:03:04.361Z,3.90
2019-01-12T12:04:06.632Z,3.90
2019-01-12T12:05:04.593Z,3.90
2019-01-12T12:06:04.738Z,4.00
2019-01-12T12:07:04.805Z,4.00
2019-01-12T12:08:04.830Z,3.90
2019-01-12T12:09:04.856Z,3.90
2019-01-12T12:10:04.305Z,3.90
2019-01-12T12:11:04.564Z,3.90
2019-01-12T12:12:04.977Z,3.90
2019-01-12T12:13:04.935Z,3.90
2019-01-12T12:14:04.961Z,3.90
2019-01-12T12:15:05.096Z,3.90
2019-01-12T12:16:04.203Z,3.90
2019-01-12T12:17:04.349Z,3.90
2019-01-12T12:18:05.177Z,3.90
2019-01-12T12:19:05.163Z,3.90
2019-01-12T12:20:04.734Z,3.90
2019-01-12T12:21:05.220Z,3.80
2019-01-12T12:22:05.159Z,3.80
2019-01-12T12:23:04.290Z,3.80
2019-01-12T12:24:04.868Z,3.80
2019-01-12T12:25:04.250Z,3.80
2019-01-12T12:26:04.528Z,3.80
2019-01-12T12:27:05.158Z,3.80
2019-01-12T12:28:04.485Z,3.80
2019-01-12T12:29:09.888Z,3.80
2019-01-12T12:30:04.336Z,3.80
2019-01-12T12:31:04.888Z,3.80
2019-01-12T12:32:04.956Z,3.80
2019-01-12T12:33:05.118Z,3.80
2019-01-12T12:34:05.038Z,3.80
2019-01-12T12:35:04.244Z,3.80
2019-01-12T12:36:04.981Z,3.80
2019-01-12T12:37:05.004Z,3.80
2019-01-12T12:38:05.144Z,3.80
2019-01-12T12:39:04.230Z,3.80
2019-01-12T12:40:04.841Z,3.80
2019-01-12T12:41:04.890Z,3.80
2019-01-12T12:42:05.028Z,3.80
2019-01-12T12:43:04.271Z,3.80
2019-01-12T12:44:04.829Z,3.90
2019-01-12T12:45:05.019Z,3.90
2019-01-12T12:46:05.016Z,3.90
2019-01-12T12:47:05.126Z,3.90
2019-01-12T12:48:04.208Z,3.90
2019-01-12T12:49:04.876Z,3.90
2019-01-12T12:50:04.953Z,3.90
2019-01-12T12:51:04.543Z,3.90
2019-01-12T12:52:04.212Z,3.90
2019-01-12T12:53:04.451Z,3.90
2019-01-12T12:54:04.719Z,3.90
2019-01-12T12:55:04.267Z,3.90
2019-01-12T12:56:04.376Z,3.90
2019-01-12T12:57:04.864Z,3.90
2019-01-12T12:58:04.455Z,3.90
2019-01-12T12:59:04.573Z,3.90
2019-01-12T13:00:05.007Z,3.90
2019-01-12T13:01:04.273Z,3.80
2019-01-12T13:02:04.348Z,3.90
2019-01-12T13:03:04.578Z,3.80
2019-01-12T13:04:04.837Z,3.80
2019-01-12T13:05:04.743Z,3.80
2019-01-12T13:06:04.838Z,3.80
2019-01-12T13:07:05.034Z,3.80
2019-01-12T13:08:04.210Z,3.80
2019-01-12T13:09:04.384Z,3.80
2019-01-12T13:10:04.971Z,3.80
2019-01-12T13:11:05.082Z,3.80
2019-01-12T13:12:05.259Z,3.80
2019-01-12T13:13:04.701Z,3.80
2019-01-12T13:14:04.851Z,3.80
2019-01-12T13:15:04.670Z,3.80
2019-01-12T13:16:05.089Z,3.80
2019-01-12T13:17:04.246Z,3.80
2019-01-12T13:18:04.580Z,3.80